Time;durP1;ratioP1;P1;durP2;ratioP2;P2;SDS_P1;SDS_P2;PMS_P1;PMS_P2;Temp;Humidity;BMP_temperature;BMP_pressure;BME280_temperature;BME280_humidity;BME280_pressure;Samples;Min_cycle;Max_cycle;Signal;HPM_P1;HPM_P2
2022/03/12 00:00:28;;;;;;;12.30;6.20;;;;;;;;;;5092066;28;20215;-38
2022/03/12 00:02:57;;;;;;;6.83;4.93;;;;;;;;;;5084913;28;20205;-34
2022/03/12 00:05:27;;;;;;;7.77;5.17;;;;;;;;;;5071085;28;20229;-38
2022/03/12 00:07:55;;;;;;;8.33;5.23;;;;;;;;;;5071588;28;20298;-37
2022/03/12 00:10:23;;;;;;;9.43;5.50;;;;;;;;;;5082930;28;20237;-35
2022/03/12 00:12:51;;;;;;;7.93;4.97;;;;;;;;;;5081592;28;20224;-35
2022/03/12 00:15:18;;;;;;;8.07;6.00;;;;;;;;;;5084028;28;20220;-36
2022/03/12 00:17:46;;;;;;;7.20;4.50;;;;;;;;;;5088725;28;20192;-33
2022/03/12 00:20:16;;;;;;;8.63;5.50;;;;;;;;;;5084386;28;20201;-37
2022/03/12 00:22:45;;;;;;;9.53;5.40;;;;;;;;;;5077360;28;20204;-39
2022/03/12 00:25:13;;;;;;;8.23;5.50;;;;;;;;;;5091063;28;20223;-40
2022/03/12 00:27:41;;;;;;;7.10;5.07;;;;;;;;;;5087762;28;20229;-37
2022/03/12 00:30:09;;;;;;;8.03;5.17;;;;;;;;;;5080161;28;20204;-38
2022/03/12 00:32:37;;;;;;;10.23;5.03;;;;;;;;;;5091856;28;20259;-39
2022/03/12 00:35:04;;;;;;;6.80;4.90;;;;;;;;;;5089598;28;20220;-31
2022/03/12 00:37:33;;;;;;;12.47;5.67;;;;;;;;;;5076717;28;20213;-34
2022/03/12 00:40:00;;;;;;;7.10;5.07;;;;;;;;;;5081319;28;20266;-35
2022/03/12 00:42:28;;;;;;;6.90;4.70;;;;;;;;;;5073569;28;20294;-34
2022/03/12 00:44:55;;;;;;;7.33;4.83;;;;;;;;;;5070324;28;20793;-38
2022/03/12 00:47:22;;;;;;;6.37;4.90;;;;;;;;;;5074399;28;20243;-41
2022/03/12 00:49:50;;;;;;;8.07;4.77;;;;;;;;;;5079874;28;20288;-37
2022/03/12 00:52:18;;;;;;;6.10;4.73;;;;;;;;;;5091262;28;20200;-39
2022/03/12 00:54:46;;;;;;;14.10;5.23;;;;;;;;;;5084280;28;20274;-38
2022/03/12 00:57:13;;;;;;;8.27;5.20;;;;;;;;;;5073949;28;20266;-35
2022/03/12 00:59:41;;;;;;;8.37;4.80;;;;;;;;;;5079122;28;20197;-35
2022/03/12 01:02:10;;;;;;;6.43;4.67;;;;;;;;;;5071201;28;20209;-39
2022/03/12 01:04:37;;;;;;;9.70;5.00;;;;;;;;;;5068877;28;20228;-34
2022/03/12 01:07:04;;;;;;;7.97;4.93;;;;;;;;;;5075454;28;20240;-35
2022/03/12 01:09:32;;;;;;;6.87;5.03;;;;;;;;;;5090195;28;20253;-33
2022/03/12 01:12:00;;;;;;;6.83;5.13;;;;;;;;;;5091159;28;20250;-40
2022/03/12 01:14:28;;;;;;;8.93;5.10;;;;;;;;;;5075640;28;20201;-35
2022/03/12 01:16:57;;;;;;;6.27;4.43;;;;;;;;;;5088535;28;20200;-35
2022/03/12 01:19:24;;;;;;;8.93;5.13;;;;;;;;;;5090793;28;20236;-37
2022/03/12 01:21:51;;;;;;;6.30;4.43;;;;;;;;;;5081769;28;20243;-35
2022/03/12 01:24:19;;;;;;;6.60;4.77;;;;;;;;;;5083505;28;20232;-32
2022/03/12 01:26:46;;;;;;;10.63;4.80;;;;;;;;;;5081853;28;20221;-35
2022/03/12 01:29:16;;;;;;;7.63;4.27;;;;;;;;;;5071407;28;20205;-35
2022/03/12 01:31:43;;;;;;;7.30;4.50;;;;;;;;;;5073269;28;20201;-35
2022/03/12 01:34:10;;;;;;;6.97;4.30;;;;;;;;;;5080186;28;20228;-35
2022/03/12 01:36:38;;;;;;;7.10;4.60;;;;;;;;;;5073284;28;20255;-38
2022/03/12 01:39:05;;;;;;;7.23;4.90;;;;;;;;;;5071855;28;20233;-39
2022/03/12 01:41:33;;;;;;;7.33;5.17;;;;;;;;;;5075091;28;20240;-31
2022/03/12 01:44:02;;;;;;;7.47;4.60;;;;;;;;;;5078046;28;20201;-40
2022/03/12 01:46:32;;;;;;;8.07;5.20;;;;;;;;;;5070457;28;20221;-36
2022/03/12 01:49:00;;;;;;;7.97;5.00;;;;;;;;;;5072685;28;20229;-39
2022/03/12 01:51:27;;;;;;;8.00;5.17;;;;;;;;;;5078334;28;20286;-39
2022/03/12 01:53:55;;;;;;;6.73;4.23;;;;;;;;;;5088244;28;20219;-36
2022/03/12 01:56:27;;;;;;;7.53;4.60;;;;;;;;;;5084477;28;20249;-34
2022/03/12 01:58:54;;;;;;;6.17;4.90;;;;;;;;;;5072414;28;20237;-32
2022/03/12 02:01:23;;;;;;;6.13;4.50;;;;;;;;;;5078458;28;20251;-35
2022/03/12 02:03:52;;;;;;;7.30;4.47;;;;;;;;;;5076832;28;20293;-42
2022/03/12 02:06:21;;;;;;;7.50;4.60;;;;;;;;;;5085122;28;20228;-37
2022/03/12 02:08:49;;;;;;;8.50;4.63;;;;;;;;;;5090764;28;20208;-35
2022/03/12 02:11:20;;;;;;;6.30;3.87;;;;;;;;;;5079729;28;20296;-35
2022/03/12 02:13:47;;;;;;;7.50;4.47;;;;;;;;;;5085765;28;20212;-37
2022/03/12 02:16:15;;;;;;;7.30;4.47;;;;;;;;;;5069615;28;20294;-33
2022/03/12 02:18:48;;;;;;;5.93;4.70;;;;;;;;;;5068913;28;20201;-32
2022/03/12 02:21:16;;;;;;;7.43;5.00;;;;;;;;;;5077498;28;20214;-37
2022/03/12 02:23:48;;;;;;;6.57;4.70;;;;;;;;;;5077574;28;20194;-40
2022/03/12 02:26:16;;;;;;;6.20;4.70;;;;;;;;;;5070078;28;20228;-37
2022/03/12 02:28:45;;;;;;;10.07;4.57;;;;;;;;;;5069917;28;20234;-32
2022/03/12 02:31:13;;;;;;;8.47;5.07;;;;;;;;;;5073947;28;20274;-38
2022/03/12 02:33:40;;;;;;;6.27;4.67;;;;;;;;;;5089515;28;20257;-36
2022/03/12 02:36:08;;;;;;;9.17;4.70;;;;;;;;;;5088879;28;20309;-33
2022/03/12 02:38:36;;;;;;;7.77;4.80;;;;;;;;;;5080906;28;20200;-33
2022/03/12 02:41:10;;;;;;;8.77;4.73;;;;;;;;;;5082926;28;20228;-34
2022/03/12 02:43:39;;;;;;;7.97;4.70;;;;;;;;;;5085486;28;20200;-37
2022/03/12 02:46:06;;;;;;;6.50;5.00;;;;;;;;;;5090353;28;20220;-37
2022/03/12 02:48:34;;;;;;;18.87;4.63;;;;;;;;;;5076694;28;20252;-36
2022/03/12 02:51:04;;;;;;;5.70;4.00;;;;;;;;;;5080646;28;20204;-35
2022/03/12 02:53:31;;;;;;;8.00;4.53;;;;;;;;;;5074083;28;20213;-39
2022/03/12 02:55:58;;;;;;;8.50;4.97;;;;;;;;;;5072869;28;20332;-40
2022/03/12 02:58:28;;;;;;;7.43;4.80;;;;;;;;;;5077744;28;20246;-40
2022/03/12 03:00:57;;;;;;;7.07;4.30;;;;;;;;;;5079358;28;20193;-37
2022/03/12 03:03:25;;;;;;;6.77;4.50;;;;;;;;;;5070360;28;20209;-36
2022/03/12 03:05:54;;;;;;;5.10;3.93;;;;;;;;;;5077461;28;20224;-37
2022/03/12 03:08:22;;;;;;;5.50;4.30;;;;;;;;;;5078740;28;20336;-34
2022/03/12 03:10:50;;;;;;;6.63;4.10;;;;;;;;;;5073958;28;20213;-39
2022/03/12 03:13:36;;;;;;;6.07;4.23;;;;;;;;;;5077339;28;20496;-34
2022/03/12 03:16:05;;;;;;;4.00;3.13;;;;;;;;;;5073980;28;20232;-32
2022/03/12 03:18:39;;;;;;;4.73;3.87;;;;;;;;;;5081830;28;20193;-35
2022/03/12 03:21:07;;;;;;;6.13;4.43;;;;;;;;;;5076105;28;20212;-34
2022/03/12 03:23:35;;;;;;;6.17;4.87;;;;;;;;;;5081408;28;20223;-39
2022/03/12 03:26:02;;;;;;;7.20;5.07;;;;;;;;;;5073831;28;20444;-33
2022/03/12 03:28:29;;;;;;;4.57;3.97;;;;;;;;;;5074073;28;20274;-38
2022/03/12 03:30:58;;;;;;;6.83;4.57;;;;;;;;;;5084741;28;20204;-36
2022/03/12 03:33:27;;;;;;;7.87;5.17;;;;;;;;;;5092117;28;20220;-40
2022/03/12 03:35:55;;;;;;;7.10;4.47;;;;;;;;;;5088317;28;20278;-34
2022/03/12 03:38:22;;;;;;;8.20;4.77;;;;;;;;;;5079818;28;20259;-35
2022/03/12 03:40:49;;;;;;;6.53;5.17;;;;;;;;;;5074490;28;20205;-29
2022/03/12 03:43:35;;;;;;;6.37;4.27;;;;;;;;;;5072288;28;20205;-36
2022/03/12 03:46:04;;;;;;;8.93;4.70;;;;;;;;;;5074627;28;20232;-37
2022/03/12 03:48:32;;;;;;;6.93;4.23;;;;;;;;;;5077011;28;20221;-31
2022/03/12 03:50:59;;;;;;;7.27;4.03;;;;;;;;;;5071699;28;20236;-36
2022/03/12 03:53:27;;;;;;;6.63;4.80;;;;;;;;;;5071900;28;20244;-34
2022/03/12 03:56:00;;;;;;;8.20;4.57;;;;;;;;;;5082574;28;20319;-36
2022/03/12 03:58:27;;;;;;;7.20;4.00;;;;;;;;;;5080481;28;20276;-36
2022/03/12 04:00:57;;;;;;;5.67;3.87;;;;;;;;;;5072140;28;20629;-32
2022/03/12 04:03:26;;;;;;;8.47;4.57;;;;;;;;;;5073144;28;20262;-35
2022/03/12 04:05:54;;;;;;;6.57;4.43;;;;;;;;;;5072327;28;20272;-38
2022/03/12 04:08:22;;;;;;;8.67;4.97;;;;;;;;;;5071799;28;20228;-37
2022/03/12 04:10:49;;;;;;;11.13;4.23;;;;;;;;;;5076083;28;20205;-40
2022/03/12 04:13:18;;;;;;;5.33;3.63;;;;;;;;;;5080661;28;20211;-33
2022/03/12 04:15:45;;;;;;;6.10;4.33;;;;;;;;;;5084423;28;20216;-36
2022/03/12 04:18:15;;;;;;;6.77;4.03;;;;;;;;;;5092334;28;20204;-37
2022/03/12 04:20:47;;;;;;;5.43;4.20;;;;;;;;;;5091182;28;20205;-37
2022/03/12 04:23:19;;;;;;;5.57;4.40;;;;;;;;;;5083302;28;20296;-40
2022/03/12 04:25:46;;;;;;;5.20;3.70;;;;;;;;;;5082245;28;20212;-30
2022/03/12 04:28:13;;;;;;;6.90;4.70;;;;;;;;;;5071565;28;20698;-33
2022/03/12 04:30:41;;;;;;;6.23;4.60;;;;;;;;;;5069634;28;20205;-35
2022/03/12 04:33:10;;;;;;;8.40;4.43;;;;;;;;;;5082419;28;20212;-39
2022/03/12 04:35:38;;;;;;;8.27;4.40;;;;;;;;;;5086917;28;20221;-39
2022/03/12 04:38:09;;;;;;;5.97;4.07;;;;;;;;;;5089803;28;20208;-37
2022/03/12 04:40:37;;;;;;;5.97;4.57;;;;;;;;;;5076975;28;20257;-33
2022/03/12 04:43:06;;;;;;;6.53;4.33;;;;;;;;;;5079067;28;20221;-36
2022/03/12 04:45:33;;;;;;;6.47;4.00;;;;;;;;;;5085862;28;20216;-36
2022/03/12 04:48:01;;;;;;;5.27;3.73;;;;;;;;;;5087254;28;20252;-36
2022/03/12 04:50:28;;;;;;;5.73;4.03;;;;;;;;;;5075458;28;20197;-35
2022/03/12 04:52:58;;;;;;;7.20;4.20;;;;;;;;;;5078825;28;20253;-38
2022/03/12 04:55:28;;;;;;;6.73;4.53;;;;;;;;;;5071223;28;20283;-38
2022/03/12 04:57:55;;;;;;;7.47;4.43;;;;;;;;;;5083460;28;20201;-41
2022/03/12 05:00:25;;;;;;;6.07;4.20;;;;;;;;;;5076156;28;20282;-37
2022/03/12 05:02:55;;;;;;;6.23;4.43;;;;;;;;;;5091079;28;20196;-34
2022/03/12 05:05:22;;;;;;;5.77;4.53;;;;;;;;;;5079741;28;20248;-35
2022/03/12 05:07:51;;;;;;;7.63;4.77;;;;;;;;;;5086651;28;20239;-32
2022/03/12 05:10:18;;;;;;;6.43;4.00;;;;;;;;;;5090545;28;20279;-34
2022/03/12 05:12:48;;;;;;;6.63;3.87;;;;;;;;;;5086683;28;20197;-36
2022/03/12 05:15:16;;;;;;;4.97;3.27;;;;;;;;;;5071144;28;20239;-42
2022/03/12 05:17:46;;;;;;;7.23;4.80;;;;;;;;;;5078594;28;20205;-37
2022/03/12 05:20:14;;;;;;;9.40;4.80;;;;;;;;;;5070951;28;20243;-33
2022/03/12 05:22:41;;;;;;;6.87;4.57;;;;;;;;;;5071463;28;20201;-38
2022/03/12 05:25:09;;;;;;;5.10;4.00;;;;;;;;;;5081813;28;20244;-36
2022/03/12 05:27:36;;;;;;;5.37;4.43;;;;;;;;;;5081464;28;20282;-37
2022/03/12 05:30:05;;;;;;;7.10;4.40;;;;;;;;;;5088189;28;20295;-33
2022/03/12 05:32:32;;;;;;;7.83;4.20;;;;;;;;;;5081008;28;20254;-34
2022/03/12 05:35:00;;;;;;;4.90;3.83;;;;;;;;;;5078962;28;20259;-40
2022/03/12 05:37:28;;;;;;;6.77;4.30;;;;;;;;;;5069850;28;20248;-34
2022/03/12 05:39:55;;;;;;;6.33;4.23;;;;;;;;;;5077771;28;20207;-42
2022/03/12 05:42:23;;;;;;;6.53;4.67;;;;;;;;;;5087840;28;20200;-36
2022/03/12 05:44:50;;;;;;;6.13;4.10;;;;;;;;;;5071744;28;20335;-38
2022/03/12 05:47:20;;;;;;;7.50;3.90;;;;;;;;;;5068597;28;20254;-30
2022/03/12 05:49:48;;;;;;;5.70;4.20;;;;;;;;;;5072197;28;20205;-39
2022/03/12 05:52:17;;;;;;;5.60;4.10;;;;;;;;;;5084895;28;20287;-39
2022/03/12 05:54:48;;;;;;;5.53;4.20;;;;;;;;;;5069482;28;20255;-34
2022/03/12 05:57:16;;;;;;;6.73;3.93;;;;;;;;;;5072309;28;20193;-39
2022/03/12 05:59:44;;;;;;;7.03;4.37;;;;;;;;;;5069184;28;20531;-34
2022/03/12 06:02:11;;;;;;;6.80;4.37;;;;;;;;;;5069466;28;20213;-37
2022/03/12 06:04:40;;;;;;;9.17;4.80;;;;;;;;;;5069335;28;20252;-34
2022/03/12 06:07:09;;;;;;;8.80;4.87;;;;;;;;;;5073903;28;20308;-35
2022/03/12 06:09:37;;;;;;;5.67;4.23;;;;;;;;;;5075961;28;20219;-38
2022/03/12 06:12:05;;;;;;;7.37;4.47;;;;;;;;;;5070315;28;20234;-34
2022/03/12 06:14:40;;;;;;;5.80;3.90;;;;;;;;;;5072948;28;20201;-37
2022/03/12 06:17:08;;;;;;;6.00;4.37;;;;;;;;;;5080929;28;20200;-40
2022/03/12 06:19:35;;;;;;;6.80;4.43;;;;;;;;;;5089272;28;20284;-39
2022/03/12 06:22:04;;;;;;;7.67;4.73;;;;;;;;;;5087206;28;20232;-33
2022/03/12 06:24:33;;;;;;;6.33;4.23;;;;;;;;;;5083590;28;20215;-33
2022/03/12 06:27:00;;;;;;;8.37;4.90;;;;;;;;;;5069429;28;20208;-35
2022/03/12 06:29:29;;;;;;;9.20;4.70;;;;;;;;;;5069204;28;20263;-35
2022/03/12 06:31:57;;;;;;;8.67;4.93;;;;;;;;;;5085445;28;20209;-37
2022/03/12 06:34:24;;;;;;;8.67;4.73;;;;;;;;;;5083225;28;20197;-36
2022/03/12 06:36:51;;;;;;;6.73;4.60;;;;;;;;;;5069758;28;20293;-42
2022/03/12 06:39:20;;;;;;;7.57;5.20;;;;;;;;;;5086306;28;20201;-34
2022/03/12 06:41:48;;;;;;;6.13;4.60;;;;;;;;;;5082079;28;20200;-37
2022/03/12 06:44:16;;;;;;;7.43;4.87;;;;;;;;;;5080491;28;20197;-34
2022/03/12 06:46:43;;;;;;;6.50;4.57;;;;;;;;;;5090028;28;20208;-40
2022/03/12 06:49:11;;;;;;;9.50;5.13;;;;;;;;;;5085746;28;20235;-35
2022/03/12 06:51:39;;;;;;;7.57;4.60;;;;;;;;;;5086261;28;20216;-35
2022/03/12 06:54:07;;;;;;;6.93;5.20;;;;;;;;;;5080334;28;20204;-35
2022/03/12 06:56:39;;;;;;;7.60;5.00;;;;;;;;;;5087362;28;20306;-31
2022/03/12 06:59:07;;;;;;;6.93;5.23;;;;;;;;;;5083406;28;20278;-33
2022/03/12 07:01:34;;;;;;;5.53;4.40;;;;;;;;;;5070487;28;20200;-33
2022/03/12 07:04:01;;;;;;;6.53;5.33;;;;;;;;;;5068767;28;20232;-39
2022/03/12 07:06:28;;;;;;;7.20;5.03;;;;;;;;;;5072467;28;20225;-36
2022/03/12 07:08:55;;;;;;;8.07;5.60;;;;;;;;;;5070083;28;20249;-34
2022/03/12 07:11:23;;;;;;;6.77;4.83;;;;;;;;;;5069058;28;20294;-35
2022/03/12 07:13:51;;;;;;;8.83;5.23;;;;;;;;;;5069253;28;20224;-39
2022/03/12 07:16:19;;;;;;;7.87;4.83;;;;;;;;;;5068412;28;20286;-41
2022/03/12 07:18:46;;;;;;;8.63;5.57;;;;;;;;;;5068506;28;20193;-38
2022/03/12 07:21:13;;;;;;;7.77;5.40;;;;;;;;;;5077422;28;20239;-34
2022/03/12 07:23:41;;;;;;;6.83;4.63;;;;;;;;;;5079703;28;20205;-35
2022/03/12 07:26:09;;;;;;;7.23;5.00;;;;;;;;;;5068581;28;20304;-36
2022/03/12 07:28:36;;;;;;;7.87;4.80;;;;;;;;;;5072139;28;20247;-35
2022/03/12 07:31:05;;;;;;;7.13;5.37;;;;;;;;;;5071586;28;20209;-36
2022/03/12 07:33:32;;;;;;;7.87;5.20;;;;;;;;;;5070361;28;20205;-34
2022/03/12 07:35:59;;;;;;;7.33;5.30;;;;;;;;;;5068631;28;20233;-35
2022/03/12 07:38:26;;;;;;;9.70;5.43;;;;;;;;;;5067468;28;20251;-33
2022/03/12 07:40:54;;;;;;;6.77;5.30;;;;;;;;;;5081995;28;20197;-35
2022/03/12 07:43:21;;;;;;;10.23;5.80;;;;;;;;;;5076222;28;20275;-37
2022/03/12 07:45:48;;;;;;;7.63;5.73;;;;;;;;;;5073968;28;20398;-34
2022/03/12 07:48:17;;;;;;;8.73;5.53;;;;;;;;;;5076118;28;20270;-37
2022/03/12 07:50:46;;;;;;;8.50;5.57;;;;;;;;;;5067947;28;20243;-34
2022/03/12 07:53:13;;;;;;;8.43;5.33;;;;;;;;;;5072234;28;20212;-40
2022/03/12 07:55:41;;;;;;;9.47;5.30;;;;;;;;;;5077795;28;20246;-34
2022/03/12 07:58:08;;;;;;;9.50;5.70;;;;;;;;;;5081040;28;20247;-40
2022/03/12 08:00:35;;;;;;;7.70;4.77;;;;;;;;;;5082713;28;20244;-40
2022/03/12 08:03:03;;;;;;;8.13;5.33;;;;;;;;;;5080066;28;20251;-38
2022/03/12 08:05:32;;;;;;;9.93;5.03;;;;;;;;;;5076661;28;20221;-38
2022/03/12 08:08:00;;;;;;;9.30;5.37;;;;;;;;;;5071651;28;20201;-34
2022/03/12 08:10:28;;;;;;;8.13;5.20;;;;;;;;;;5073702;28;20254;-42
2022/03/12 08:12:57;;;;;;;8.53;5.60;;;;;;;;;;5076934;28;20202;-34
2022/03/12 08:15:24;;;;;;;8.20;5.30;;;;;;;;;;5072630;28;20284;-36
2022/03/12 08:17:52;;;;;;;10.30;5.40;;;;;;;;;;5074347;28;20262;-40
2022/03/12 08:20:19;;;;;;;6.90;5.27;;;;;;;;;;5082750;28;20207;-37
2022/03/12 08:22:48;;;;;;;9.60;5.10;;;;;;;;;;5092086;28;20197;-39
2022/03/12 08:25:16;;;;;;;9.40;5.70;;;;;;;;;;5088218;28;20282;-35
2022/03/12 08:27:43;;;;;;;8.80;5.30;;;;;;;;;;5080171;28;20215;-36
2022/03/12 08:30:11;;;;;;;6.90;5.43;;;;;;;;;;5080108;28;20287;-33
2022/03/12 08:32:40;;;;;;;10.80;5.53;;;;;;;;;;5081256;28;20211;-40
2022/03/12 08:35:08;;;;;;;9.07;5.80;;;;;;;;;;5077286;28;20231;-40
2022/03/12 08:37:36;;;;;;;8.47;5.53;;;;;;;;;;5077020;28;20263;-36
2022/03/12 08:40:06;;;;;;;11.20;5.43;;;;;;;;;;5074294;28;20270;-31
2022/03/12 08:42:33;;;;;;;7.93;5.40;;;;;;;;;;5082409;28;20280;-33
2022/03/12 08:45:01;;;;;;;9.60;5.87;;;;;;;;;;5079121;28;20217;-35
2022/03/12 08:47:28;;;;;;;10.60;5.80;;;;;;;;;;5077803;28;20250;-35
2022/03/12 08:49:55;;;;;;;8.73;6.00;;;;;;;;;;5075901;28;20302;-33
2022/03/12 08:52:23;;;;;;;8.67;5.87;;;;;;;;;;5082083;28;20242;-35
2022/03/12 08:54:50;;;;;;;8.73;5.20;;;;;;;;;;5079984;28;20232;-37
2022/03/12 08:57:19;;;;;;;8.67;5.90;;;;;;;;;;5086232;28;20205;-36
2022/03/12 08:59:46;;;;;;;8.90;5.87;;;;;;;;;;5073145;28;20197;-35
2022/03/12 09:02:14;;;;;;;9.53;6.70;;;;;;;;;;5076628;28;20247;-35
2022/03/12 09:04:41;;;;;;;9.43;6.03;;;;;;;;;;5066106;28;20257;-39
2022/03/12 09:07:08;;;;;;;10.57;6.77;;;;;;;;;;5082835;28;20201;-33
2022/03/12 09:09:36;;;;;;;11.37;6.87;;;;;;;;;;5086517;28;20221;-37
2022/03/12 09:12:03;;;;;;;9.83;6.57;;;;;;;;;;5082537;28;20209;-37
2022/03/12 09:14:34;;;;;;;11.97;6.17;;;;;;;;;;5072550;28;20209;-33
2022/03/12 09:17:02;;;;;;;10.20;7.33;;;;;;;;;;5066982;28;20288;-40
2022/03/12 09:19:29;;;;;;;15.23;6.47;;;;;;;;;;5068761;28;20201;-37
2022/03/12 09:21:57;;;;;;;9.07;6.10;;;;;;;;;;5087086;28;20273;-33
2022/03/12 09:24:24;;;;;;;11.93;6.53;;;;;;;;;;5080651;28;20229;-33
2022/03/12 09:26:52;;;;;;;9.93;7.27;;;;;;;;;;5080072;28;20586;-34
2022/03/12 09:29:19;;;;;;;10.50;6.43;;;;;;;;;;5075250;28;20294;-35
2022/03/12 09:31:48;;;;;;;9.27;6.27;;;;;;;;;;5081877;28;20243;-40
2022/03/12 09:34:15;;;;;;;10.03;7.20;;;;;;;;;;5069767;28;20321;-34
2022/03/12 09:36:43;;;;;;;10.67;7.07;;;;;;;;;;5076706;28;20204;-35
2022/03/12 09:39:10;;;;;;;11.53;7.40;;;;;;;;;;5071578;28;20201;-40
2022/03/12 09:41:40;;;;;;;11.80;7.27;;;;;;;;;;5081424;28;20235;-36
2022/03/12 09:44:07;;;;;;;12.87;7.20;;;;;;;;;;5088584;28;20205;-39
2022/03/12 09:46:35;;;;;;;10.43;7.17;;;;;;;;;;5076213;28;20232;-37
2022/03/12 09:49:04;;;;;;;15.30;7.73;;;;;;;;;;5070285;28;20257;-37
2022/03/12 09:51:32;;;;;;;11.23;6.57;;;;;;;;;;5068960;28;20205;-39
2022/03/12 09:53:59;;;;;;;12.37;7.83;;;;;;;;;;5068369;28;20290;-43
2022/03/12 09:56:26;;;;;;;13.27;7.17;;;;;;;;;;5069318;28;20740;-37
2022/03/12 09:58:54;;;;;;;15.40;7.73;;;;;;;;;;5080354;28;20439;-35
2022/03/12 10:01:21;;;;;;;12.07;7.77;;;;;;;;;;5081672;28;20189;-36
2022/03/12 10:03:48;;;;;;;13.23;7.10;;;;;;;;;;5070843;28;20204;-30
2022/03/12 10:06:17;;;;;;;15.20;7.53;;;;;;;;;;5074322;28;20274;-31
2022/03/12 10:08:44;;;;;;;13.47;7.40;;;;;;;;;;5080572;28;20201;-36
2022/03/12 10:11:12;;;;;;;18.10;8.40;;;;;;;;;;5073079;28;20209;-35
2022/03/12 10:13:40;;;;;;;15.03;9.30;;;;;;;;;;5082005;28;20232;-39
2022/03/12 10:16:09;;;;;;;16.43;8.47;;;;;;;;;;5071021;28;20228;-40
2022/03/12 10:18:37;;;;;;;15.70;8.20;;;;;;;;;;5076003;28;20200;-40
2022/03/12 10:21:04;;;;;;;17.47;9.77;;;;;;;;;;5077736;28;20201;-37
2022/03/12 10:23:34;;;;;;;12.23;8.57;;;;;;;;;;5072780;28;20230;-34
2022/03/12 10:26:02;;;;;;;13.17;7.87;;;;;;;;;;5088189;28;20229;-37
2022/03/12 10:28:34;;;;;;;11.37;8.53;;;;;;;;;;5077321;28;20209;-35
2022/03/12 10:31:03;;;;;;;10.90;8.03;;;;;;;;;;5069949;28;20221;-34
2022/03/12 10:33:31;;;;;;;11.20;7.60;;;;;;;;;;5075068;28;20211;-37
2022/03/12 10:36:10;;;;;;;12.23;7.80;;;;;;;;;;5070564;28;20222;-39
2022/03/12 10:38:41;;;;;;;12.37;7.60;;;;;;;;;;5068862;28;20211;-35
2022/03/12 10:41:08;;;;;;;10.53;7.77;;;;;;;;;;5070929;28;20246;-35
2022/03/12 10:43:45;;;;;;;12.20;7.97;;;;;;;;;;5075609;28;20201;-39
2022/03/12 10:46:15;;;;;;;12.40;8.17;;;;;;;;;;5069250;28;20221;-34
2022/03/12 10:48:43;;;;;;;11.17;7.03;;;;;;;;;;5069802;28;20197;-38
2022/03/12 10:51:10;;;;;;;11.83;7.40;;;;;;;;;;5068908;28;20225;-34
2022/03/12 10:53:37;;;;;;;13.73;7.47;;;;;;;;;;5071508;28;20259;-35
2022/03/12 10:56:08;;;;;;;11.90;7.50;;;;;;;;;;5070826;28;20212;-34
2022/03/12 10:58:36;;;;;;;10.80;6.80;;;;;;;;;;5076568;28;20745;-35
2022/03/12 11:01:03;;;;;;;13.60;7.77;;;;;;;;;;5079501;28;20196;-37
2022/03/12 11:03:31;;;;;;;13.63;7.40;;;;;;;;;;5074444;28;20374;-35
2022/03/12 11:05:59;;;;;;;9.97;7.03;;;;;;;;;;5068380;28;20221;-37
2022/03/12 11:08:27;;;;;;;10.63;5.67;;;;;;;;;;5069783;28;20292;-39
2022/03/12 11:10:58;;;;;;;11.90;7.87;;;;;;;;;;5067472;28;20233;-36
2022/03/12 11:13:31;;;;;;;10.63;6.73;;;;;;;;;;5082421;28;20212;-36
2022/03/12 11:16:10;;;;;;;9.73;6.27;;;;;;;;;;5076964;28;20224;-40
2022/03/12 11:18:37;;;;;;;7.67;5.43;;;;;;;;;;5081300;28;20196;-36
2022/03/12 11:21:05;;;;;;;9.10;5.73;;;;;;;;;;5076674;28;20240;-34
2022/03/12 11:23:32;;;;;;;9.40;5.93;;;;;;;;;;5087247;28;20200;-35
2022/03/12 11:26:05;;;;;;;8.73;4.70;;;;;;;;;;5068395;28;20240;-38
2022/03/12 11:28:36;;;;;;;8.57;5.17;;;;;;;;;;5069079;28;20206;-37
2022/03/12 11:31:06;;;;;;;9.07;5.70;;;;;;;;;;5071091;28;20209;-37
2022/03/12 11:33:34;;;;;;;7.10;4.97;;;;;;;;;;5069867;28;20197;-39
2022/03/12 11:36:03;;;;;;;8.67;5.67;;;;;;;;;;5075382;28;20433;-35
2022/03/12 11:38:32;;;;;;;7.47;4.67;;;;;;;;;;5081785;28;20292;-35
2022/03/12 11:41:08;;;;;;;7.70;5.57;;;;;;;;;;5075921;28;20200;-39
2022/03/12 11:43:39;;;;;;;7.13;4.93;;;;;;;;;;5082166;28;20218;-41
2022/03/12 11:46:07;;;;;;;12.67;6.03;;;;;;;;;;5092782;28;20264;-40
2022/03/12 11:48:36;;;;;;;7.47;4.60;;;;;;;;;;5080468;28;20205;-34
2022/03/12 11:51:04;;;;;;;5.73;4.30;;;;;;;;;;5083423;28;20233;-37
2022/03/12 11:53:36;;;;;;;8.90;5.67;;;;;;;;;;5087962;28;20205;-35
2022/03/12 11:56:05;;;;;;;9.13;5.57;;;;;;;;;;5079641;28;20221;-37
2022/03/12 11:58:33;;;;;;;7.77;4.67;;;;;;;;;;5078448;28;20205;-34
2022/03/12 12:01:01;;;;;;;9.97;5.70;;;;;;;;;;5080185;28;20198;-37
2022/03/12 12:03:29;;;;;;;7.73;4.37;;;;;;;;;;5077986;28;20250;-36
2022/03/12 12:05:56;;;;;;;7.50;4.93;;;;;;;;;;5084585;28;20232;-38
2022/03/12 12:08:24;;;;;;;8.27;4.87;;;;;;;;;;5080537;28;20228;-33
2022/03/12 12:10:54;;;;;;;7.63;5.00;;;;;;;;;;5085239;28;20220;-36
2022/03/12 12:13:22;;;;;;;8.00;5.33;;;;;;;;;;5071778;28;20205;-33
2022/03/12 12:15:50;;;;;;;8.87;5.83;;;;;;;;;;5073415;28;20237;-35
2022/03/12 12:18:20;;;;;;;10.67;5.27;;;;;;;;;;5080619;28;20205;-39
2022/03/12 12:20:48;;;;;;;7.30;4.87;;;;;;;;;;5094205;28;20318;-39
2022/03/12 12:23:18;;;;;;;6.77;5.33;;;;;;;;;;5090734;28;20208;-34
2022/03/12 12:25:45;;;;;;;8.60;5.63;;;;;;;;;;5080111;28;20233;-31
2022/03/12 12:28:17;;;;;;;6.67;5.20;;;;;;;;;;5089552;28;20200;-34
2022/03/12 12:30:48;;;;;;;8.90;6.07;;;;;;;;;;5077549;28;20221;-37
2022/03/12 12:33:17;;;;;;;6.57;4.60;;;;;;;;;;5078647;28;20232;-36
2022/03/12 12:35:47;;;;;;;7.93;4.50;;;;;;;;;;5079040;28;20231;-30
2022/03/12 12:38:15;;;;;;;7.73;5.53;;;;;;;;;;5072867;28;20198;-32
2022/03/12 12:40:47;;;;;;;7.83;5.43;;;;;;;;;;5073526;28;20197;-36
2022/03/12 12:43:17;;;;;;;7.87;5.70;;;;;;;;;;5081405;28;20202;-36
2022/03/12 12:46:05;;;;;;;8.87;5.27;;;;;;;;;;5084160;28;20229;-34
2022/03/12 12:48:34;;;;;;;7.57;5.80;;;;;;;;;;5076020;28;20254;-37
2022/03/12 12:51:15;;;;;;;12.07;6.50;;;;;;;;;;5082264;28;20221;-33
2022/03/12 12:53:43;;;;;;;8.00;5.70;;;;;;;;;;5075135;28;20219;-32
2022/03/12 12:56:21;;;;;;;6.70;5.50;;;;;;;;;;5077121;28;20222;-31
2022/03/12 12:58:50;;;;;;;6.53;5.60;;;;;;;;;;5075696;28;20294;-35
2022/03/12 13:01:18;;;;;;;7.97;5.50;;;;;;;;;;5090595;28;20197;-38
2022/03/12 13:03:47;;;;;;;7.77;6.37;;;;;;;;;;5084021;28;20454;-36
2022/03/12 13:06:36;;;;;;;7.13;5.90;;;;;;;;;;5077724;28;20224;-36
2022/03/12 13:09:07;;;;;;;11.83;6.77;;;;;;;;;;5076381;28;20205;-37
2022/03/12 13:11:35;;;;;;;9.87;7.00;;;;;;;;;;5081970;28;20209;-40
2022/03/12 13:14:10;;;;;;;10.13;6.70;;;;;;;;;;5071642;28;20299;-40
2022/03/12 13:16:51;;;;;;;8.77;5.70;;;;;;;;;;5087100;28;20277;-35
2022/03/12 13:19:37;;;;;;;10.87;6.67;;;;;;;;;;5085196;28;20213;-38
2022/03/12 13:22:06;;;;;;;9.87;6.33;;;;;;;;;;5073777;28;20206;-38
2022/03/12 13:24:43;;;;;;;7.67;6.13;;;;;;;;;;5071671;28;20229;-37
2022/03/12 13:27:17;;;;;;;9.47;6.23;;;;;;;;;;5079411;28;20252;-38
2022/03/12 13:29:44;;;;;;;14.93;6.33;;;;;;;;;;5079211;28;20205;-35
2022/03/12 13:32:18;;;;;;;13.13;6.33;;;;;;;;;;5075981;28;20204;-39
2022/03/12 13:34:45;;;;;;;13.20;6.27;;;;;;;;;;5073203;28;20227;-32
2022/03/12 13:37:14;;;;;;;8.13;5.97;;;;;;;;;;5089076;28;20228;-36
2022/03/12 13:39:48;;;;;;;10.07;6.53;;;;;;;;;;5071635;28;20205;-33
2022/03/12 13:42:16;;;;;;;8.70;6.27;;;;;;;;;;5073149;28;20257;-37
2022/03/12 13:44:46;;;;;;;8.23;5.70;;;;;;;;;;5068861;28;20232;-35
2022/03/12 13:47:20;;;;;;;9.93;6.93;;;;;;;;;;5070279;28;20217;-40
2022/03/12 13:49:48;;;;;;;9.73;6.50;;;;;;;;;;5073078;28;20205;-40
2022/03/12 13:52:19;;;;;;;9.90;6.60;;;;;;;;;;5077504;28;20244;-39
2022/03/12 13:54:46;;;;;;;8.73;6.83;;;;;;;;;;5069436;28;20229;-37
2022/03/12 13:57:15;;;;;;;9.40;6.17;;;;;;;;;;5074792;28;20204;-37
2022/03/12 13:59:43;;;;;;;8.13;5.87;;;;;;;;;;5080491;28;20202;-35
2022/03/12 14:02:12;;;;;;;10.97;6.90;;;;;;;;;;5081336;28;20199;-36
2022/03/12 14:04:40;;;;;;;9.20;6.80;;;;;;;;;;5072820;28;20226;-32
2022/03/12 14:07:14;;;;;;;10.23;6.70;;;;;;;;;;5073674;28;20250;-37
2022/03/12 14:09:46;;;;;;;8.27;6.50;;;;;;;;;;5065091;28;20230;-38
2022/03/12 14:12:18;;;;;;;9.00;6.40;;;;;;;;;;5062976;28;20235;-39
2022/03/12 14:14:47;;;;;;;9.13;6.70;;;;;;;;;;5078026;28;20225;-42
2022/03/12 14:17:57;;;;;;;9.80;5.83;;;;;;;;;;5070618;28;20303;-36
2022/03/12 14:20:36;;;;;;;16.20;7.07;;;;;;;;;;5073296;28;20221;-33
2022/03/12 14:23:22;;;;;;;11.67;6.23;;;;;;;;;;5077995;28;20655;-38
2022/03/12 14:25:55;;;;;;;9.67;7.13;;;;;;;;;;5068062;28;20232;-38
2022/03/12 14:28:27;;;;;;;7.67;5.90;;;;;;;;;;5070092;28;20201;-32
2022/03/12 14:31:17;;;;;;;9.43;6.60;;;;;;;;;;5069815;28;20225;-32
2022/03/12 14:33:55;;;;;;;9.97;6.67;;;;;;;;;;5065772;28;20210;-37
2022/03/12 14:36:26;;;;;;;12.53;6.07;;;;;;;;;;5068164;28;20217;-41
2022/03/12 14:38:53;;;;;;;9.80;6.40;;;;;;;;;;5069471;28;20228;-34
2022/03/12 14:41:32;;;;;;;7.37;5.30;;;;;;;;;;5068060;28;20258;-32
2022/03/12 14:44:01;;;;;;;9.33;6.27;;;;;;;;;;5078957;28;20197;-35
2022/03/12 14:46:44;;;;;;;9.77;6.53;;;;;;;;;;5079881;28;20232;-41
2022/03/12 14:52:24;;;;;;;9.43;6.27;;;;;;;;;;5072771;28;20247;-34
2022/03/12 14:55:03;;;;;;;8.63;6.20;;;;;;;;;;5088496;28;20216;-36